Logo AVAMET
Benvolgut visitant, si us plau, ingressa Recuperar contrasenya
AVAMET paisatges

Ontinyent Alba

Dades diàries. Acumulats / Últims 30 dies disponibles

Data Temperatura (°C) Humitat rel. (%) Pressió rel. (hPa) Vent (km/h) Precipitació
Mínima Mitjana Màxima Amplitud
tèrmica
Mínima Mitjana Màxima Mínima Mitjana Màxima Predom. Mitjana Ràfega
màxima
Total
(mm)
Índex-n
Mínima Mitjana Màxima Mínima Mitjana Màxima n
0 a 1
P0 max
mm 5'
Dades mensuals acumulades fins l'últim dia disponible
10/2020 5,6 11,0 16,8 17,3 19,1 24,5 31,1 25,5 20 60 96 991 1.015 1.025   4,1 62,8 6,6
Dades anuals acumulades fins l'últim dia disponible
2020 0,1 12,8 23,2 18,3 5,1 24,9 42,3 42,2 13 69 98 991 1.017 1.035   2,4 62,8 736,2
Últims 30 dies disponibles
23-10-2020 12,7     17,2     22,1 9,4 36 63 92 1.016 1.020 1.024 SO 6,0 38,6 0,0
22-10-2020 15,1     17,2     19,2 4,1 64 79 95 1.012 1.014 1.016 S 1,0 12,9 2,2 0,20
21-10-2020 13,7     19,6     28,7 15,0 25 68 95 1.009 1.011 1.013 SSW 4,0 37,0 0,0
20-10-2020 10,3     14,5     19,1 8,8 66 81 94 1.010 1.015 1.019 E 1,9 14,5 0,0
19-10-2020 9,1     15,8     23,6 14,5 48 71 93 1.018 1.020 1.022 SSE 2,4 17,7 0,0
18-10-2020 8,2     14,7     23,5 15,3 39 68 90 1.019 1.020 1.022 SSE 2,6 17,7 0,0
17-10-2020 5,8     14,3     24,2 18,4 21 49 76 1.015 1.017 1.019 SSE 3,5 24,1 0,0
16-10-2020 5,6     13,3     21,4 15,8 20 47 71 1.015 1.017 1.018 W 4,0 27,4 0,0
15-10-2020 6,6     14,1     22,6 16,0 23 45 69 1.013 1.015 1.017 SE 3,7 27,4 0,0
14-10-2020 11,8     16,2     21,4 9,6 43 57 82 1.008 1.009 1.013 SSW 2,6 19,3 0,0
13-10-2020 10,6     18,0     27,1 16,5 31 47 63 1.011 1.015 1.019 W 4,3 35,4 0,0
12-10-2020 6,9     14,4     22,9 16,0 27 49 72 1.018 1.020 1.022 SE 2,9 20,9 0,0
11-10-2020 10,2     17,4     23,1 12,9 33 66 96 1.018 1.020 1.022 ENE 2,7 17,7 0,2
10-10-2020 16,8     19,9     24,1 7,3 64 81 94 1.019 1.021 1.022 NE 1,9 20,9 0,2
09-10-2020 13,6     20,2     29,4 15,8 37 74 96 1.019 1.021 1.023 ENE 2,7 17,7 0,0
08-10-2020 13,4     19,8     27,6 14,2 49 67 86 1.020 1.022 1.025 SSE 2,3 14,5 0,0
07-10-2020 15,4     22,4     30,6 15,2 28 50 72 1.019 1.020 1.022 SSW 3,1 20,9 0,0
06-10-2020 11,4     19,8     29,7 18,3 31 46 60 1.018 1.020 1.022 SSE 3,5 20,9 0,0
05-10-2020 11,3     17,3     23,8 12,5 26 51 76 1.012 1.015 1.020 W 5,0 25,7 0,0
04-10-2020 8,4     15,5     22,2 13,8 38 57 74 1.007 1.010 1.012 SW 7,1 43,5 0,0
03-10-2020 10,1     14,4     20,8 10,7 33 52 66 1.001 1.006 1.011 SW 8,9 43,5 0,0
02-10-2020 10,6     18,3     26,2 15,6 40 58 89 991 998 1.006 SW 12,7 62,8 4,0 0,34 0,80
01-10-2020 16,1     22,8     31,1 15,0 21 44 83 1.005 1.009 1.013 W 5,3 30,6 0,0
30-09-2020 12,3     19,5     27,6 15,3 37 67 88 1.012 1.015 1.018 S 1,8 16,1 0,0
29-09-2020 11,3     17,8     26,2 14,9 48 70 89 1.016 1.018 1.019 ENE 2,7 24,1 0,0
28-09-2020 10,4     18,1     29,2 18,8 14 50 75 1.013 1.015 1.018 SE 2,7 20,9 0,0
27-09-2020 13,3     20,2     26,8 13,5 20 43 65 1.009 1.011 1.014 SW 5,6 38,6 0,0
26-09-2020 10,3     18,1     25,9 15,6 27 40 58 1.012 1.016 1.020 W 5,0 27,4 0,0
25-09-2020 15,8     20,8     25,3 9,5 22 45 68 1.013 1.015 1.020 W 9,0 41,8 0,0
24-09-2020 18,2     24,2     30,2 12,0 35 51 70 1.011 1.013 1.014 SW 7,6 40,2 0,0
Últims 13 mesos disponibles
09/2020 10,3 15,6 19,1 21,7 22,5 29,1 34,1 23,8 40 63 81 1.011 1.016 1.022 ENE 3,0 46,7 8,6
08/2020 12,9 19,7 23,2 26,6 27,1 34,6 42,3 29,4 36 62 81 1.002 1.012 1.017 ENE 2,0 46,7 34,4
07/2020 16,7 19,7 22,2 25,9 29,3 32,9 39,4 22,7 53 69 80 1.010 1.014 1.019 ENE 2,2 38,6 0,8
06/2020 11,7 15,9 20,8 22,6 21,3 29,9 34,8 23,1 46 66 83 1.004 1.013 1.019 WSW 2,2 45,1 63,8
05/2020 10,4 13,8 17,7 19,6 19,1 26,4 32,1 21,7 51 69 91 1.005 1.016 1.025 ENE 2,2 35,4 53,8
04/2020 5,1 10,3 14,4 14,1 14,4 19,3 24,4 19,3 55 79 97 1.006 1.016 1.025 ENE 2,0 30,6 69,8
03/2020 3,3 8,3 14,2 12,3 7,7 16,8 28,0 24,7 47 75 96 1.008 1.017 1.026 E 3,0 54,7 141,6
02/2020 2,6 8,3 11,5 13,6 11,3 20,4 25,5 22,9 41 68 95 1.014 1.025 1.033 SW 2,0 32,2 8,0
01/2020 0,1 4,8 12,6 8,9 5,1 14,7 19,1 19,0 59 78 97 1.017 1.026 1.033 WSW 2,0 40,2 348,8
12/2019 2,8 7,9 16,2 11,6 9,4 16,4 23,0 20,2 54 74 96 1.003 1.019 1.033 SW 3,4 61,2 156,6
11/2019 1,8 9,1 18,4 12,9 12,7 17,3 25,2 23,4 56 65 83 1.000 1.012 1.019 WSW 4,3 51,5 10,8
10/2019 7,3 13,3 16,9 18,3 13,4 24,7 32,2 24,9 46 70 92 1.008 1.016 1.022 WSW 1,6 29,0 66,4
09/2019 12,4 17,4 21,8 22,0 18,1 27,7 35,7 23,3 46 77 97 1.009 1.016 1.023 E 1,8 41,8 423,0
Tots els anys disponibles
2019 -1,7 11,6 24,1 17,1 9,4 23,6 41,0 42,7 29 64 97 996 1.016 1.034 SW 2,7 61,2 1.062,4
2018 -1,5 11,6 22,9 16,7 5,4 22,8 39,9 41,4 34 65 96 994 1.015 1.032 S 2,8 54,7 527,5
2017 -0,7 5,0 13,6 9,1 8,5 14,4 18,5 19,2 45 64 82 1.001 1.023 1.034 SSO 3,8 56,6
Temperatura (°C)
Humitat relativa (%)
Velocitat del vent i ràfega màxima (km/h)
Direcció del vent (°)
Pressió (hPa)
Precipitació (mm)
Nota sobre les dades: s'avisa a l'usuari de la provisionalitat i no oficialitat d'aquestes dades
Logo AVAMET blanc
Web allotjada a Sollutia
Llicència de Creative CommonsLa web d'AVAMET i els seus continguts estan subjectes a una llicència de
Reconeixement - No Comercial - Compartir igual
Avís legal - Política de privacitat - Política de cookies
Últimes estacions: Beniarjó (Inforatge), Sueca - Mareny de Barraquetes (Inforatge), La Vilavella - Centre (Ajuntament Soci), Alfondeguilla (Soci), Santa Magdalena de Polpís (Soci),  Benafigos (Aj. Soci), Carlet - Ajuntament (Inforatge), Montroi (Inforatge), Bronchales (Limítrofe-Terol/Aj. Soci), - - -